Terminal Aerodrome Forecast
Issued by NWS Sioux Falls, SD

Home | Current Version | Previous Version | Graphics & Text | Print | Product List | Glossary On
Versions: 1 2 3 4 5 6 7 8 9 10 11 12 13 14 15 16 17 18 19 20 21 22
000
FTUS43 KFSD 021802 AAA
TAFHON
TAF AMD
KHON 021802Z 0218/0318 12005KT P6SM BKN040
      TEMPO 0218/0220 4SM -SHRA
     FM030300 15006KT P6SM BKN150
     FM030700 11004KT P6SM SCT060
      TEMPO 0311/0313 4SM BR=

USA.gov is the U.S. government's official web portal to all federal, state and local government web resources and services.